Flight Track Log - Related Links

Times and Time Zones

All times are in EDT time to prevent confusion due to time zone crossing. See the UAL765 flight status page for this flight to view local times or setup timezone preferences in your user account.

Time Position Orientation Groundspeed Altitude Reporting Facility
EDT Latitude Longitude Course Direction KTS MPH feet Rate Location/Type
Sun 10:03:50 AM 42.3667 -71.0000 240° Southwest 162 186 600  Level KA90
Sun 10:04:58 AM 42.4333 -70.9667 20° North 215 247 3,700 2,190 Climbing KA90
Sun 10:05:56 AM 42.4500 -70.8833 75° East 254 292 5,200 2,647 Climbing KA90
Sun 10:07:00 AM 42.2956 -70.7233 228° Southwest  Level FlightAware Approximate
Sun 10:07:14 AM 42.4319 -70.7747 103° East 267 307 9,700  Level Boston Center
Sun 10:08:00 AM 42.2321 -70.8197 240° Southwest  Level FlightAware Approximate
Sun 10:08:14 AM 42.3711 -70.7428 159° South 239 275 11,500  Level Boston Center
Sun 10:09:00 AM 42.1842 -70.9313 240° Southwest  Level FlightAware Approximate
Sun 10:09:14 AM 42.2633 -70.7822 195° South 268 308 14,800  Level Boston Center
Sun 10:10:14 AM 42.2339 -70.9175 254° West 268 308 16,000 600 Climbing Boston Center
Sun 10:11:14 AM 42.2147 -71.0469 259° West 312 359 16,000  Level Boston Center
Sun 10:12:14 AM 42.1894 -71.1989 257° West 364 419 16,000  Level Boston Center
Sun 10:13:14 AM 42.1719 -71.3225 259° West 386 444 16,000  Level Boston Center
Sun 10:14:14 AM 42.1461 -71.4769 257° West 386 444 16,000  Level Boston Center
Sun 10:15:14 AM 42.1222 -71.6172 257° West 386 444 16,000  Level Boston Center
Sun 10:16:14 AM 42.1003 -71.7575 258° West 386 444 16,000  Level Boston Center
Sun 10:17:14 AM 42.0781 -71.8975 258° West 391 450 16,000  Level Boston Center
Sun 10:18:14 AM 42.0558 -72.0236 257° West 391 450 16,000  Level Boston Center
Sun 10:19:14 AM 42.0292 -72.1775 257° West 391 450 16,000  Level Boston Center
Sun 10:20:14 AM 42.0086 -72.3031 258° West 391 450 16,000  Level Boston Center
Sun 10:21:14 AM 41.9836 -72.4597 258° West 391 450 16,000  Level Boston Center
Sun 10:22:14 AM 41.9606 -72.5853 256° West 391 450 16,000  Level Boston Center
Sun 10:23:14 AM 41.9289 -72.7386 255° West 391 450 16,000 50 Level Boston Center
Sun 10:24:14 AM 41.8972 -72.8781 253° West 391 450 16,100 50 Climbing Boston Center
Sun 10:25:14 AM 41.8697 -73.0006 253° West 391 450 16,100  Level Boston Center
Sun 10:26:14 AM 41.8333 -73.1506 252° West 391 450 16,100  Level Boston Center
Sun 10:27:14 AM 41.8033 -73.2728 252° West 391 450 16,100 -100 Level Boston Center
Sun 10:28:14 AM 41.7647 -73.4253 251° West 391 450 15,900 -100 Descending Boston Center
Sun 10:29:14 AM 41.7342 -73.5500 252° West 386 444 15,900 -150 Level Boston Center
Sun 10:30:14 AM 41.6994 -73.6969 252° West 386 444 15,600 -550 Descending Boston Center
Sun 10:31:14 AM 41.6667 -73.8183 250° West 386 444 14,800 -1,000 Descending Boston Center
Sun 10:32:14 AM 41.6336 -73.9622 253° West 379 436 13,600 -1,600 Descending Boston Center
Sun 10:33:14 AM 41.6050 -74.0781 252° West 374 430 11,600 -1,300 Descending Boston Center
Sun 10:34:14 AM 41.5431 -74.1764 230° Southwest 345 397 11,000 -550 Descending Boston Center
Sun 10:35:14 AM 41.4625 -74.2628 219° Southwest 350 403 10,500 -1,250 Descending Boston Center
Sun 10:37:26 AM 41.3167 -74.4167 218° Southwest 289 333 7,000 -1,123 Descending New York TRACON
Sun 10:38:21 AM 41.2667 -74.4500 207° Southwest 286 329 7,000 -350 Level New York TRACON
Sun 10:39:26 AM 41.1833 -74.4833 197° South 279 321 6,300 -500 Descending New York TRACON
Sun 10:40:21 AM 41.1167 -74.5167 201° Southwest 281 323 6,000 -211 Descending New York TRACON
Sun 10:41:20 AM 41.0333 -74.5500 197° South 281 323 5,900 -504 Descending New York TRACON
Sun 10:42:20 AM 40.9667 -74.5667 191° South 272 313 5,000 -470 Descending New York TRACON
Sun 10:43:15 AM 40.9000 -74.5667 180° South 266 306 5,000  Level New York TRACON
Sun 10:44:21 AM 40.8167 -74.5667 180° South 264 304 5,000  Level New York TRACON
Sun 10:45:20 AM 40.7333 -74.5500 171° South 266 306 5,000  Level New York TRACON
Sun 10:46:20 AM 40.6667 -74.5333 169° South 261 300 5,000 -104 Level New York TRACON
Sun 10:47:15 AM 40.6000 -74.5000 159° South 262 302 4,800 -626 Descending New York TRACON
Sun 10:48:15 AM 40.5667 -74.4167 118° Southeast 241 277 3,800 -750 Descending New York TRACON
Sun 10:49:15 AM 40.5500 -74.3500 108° East 212 244 3,300 -403 Descending New York TRACON
Sun 10:50:14 AM 40.5167 -74.2833 123° Southeast 181 208 3,000 -202 Descending New York TRACON
Sun 10:51:14 AM 40.5500 -74.2500 37° Northeast 177 204 2,900 -522 Descending New York TRACON
Sun 10:52:09 AM 40.6000 -74.2333 14° North 173 199 2,000 -950 Descending New York TRACON
Sun 10:53:14 AM 40.6333 -74.2000 37° Northeast 145 167 1,000 -850 Descending New York TRACON
Sun 10:54:09 AM 40.6667 -74.1833 21° North 127 146 300 -764 Descending New York TRACON

Login

Don't have an account? Register now (free) for customized features, flight alerts, and more!